sensor_id;sensor_type;location;lat;lon;timestamp;P1;P2;P0
65361;PMS5003;51961;54.960;73.462;2022-10-15T00:02:35;9.00;6.67;2.33
65361;PMS5003;51961;54.960;73.462;2022-10-15T00:05:38;8.67;5.67;3.67
65361;PMS5003;51961;54.960;73.462;2022-10-15T00:08:50;10.00;5.00;2.00
65361;PMS5003;51961;54.960;73.462;2022-10-15T00:11:53;7.00;5.67;3.00
65361;PMS5003;51961;54.960;73.462;2022-10-15T00:14:55;7.33;5.00;2.00
65361;PMS5003;51961;54.960;73.462;2022-10-15T00:18:03;6.67;5.00;3.00
65361;PMS5003;51961;54.960;73.462;2022-10-15T00:21:06;7.67;5.00;2.00
65361;PMS5003;51961;54.960;73.462;2022-10-15T00:24:09;7.00;4.00;2.00
65361;PMS5003;51961;54.960;73.462;2022-10-15T00:27:12;5.00;4.33;2.00
65361;PMS5003;51961;54.960;73.462;2022-10-15T00:30:14;2.00;2.00;2.00
65361;PMS5003;51961;54.960;73.462;2022-10-15T00:33:19;5.00;4.00;2.00
65361;PMS5003;51961;54.960;73.462;2022-10-15T00:36:24;5.33;4.00;2.00
65361;PMS5003;51961;54.960;73.462;2022-10-15T00:39:29;8.00;5.00;2.00
65361;PMS5003;51961;54.960;73.462;2022-10-15T00:42:31;5.00;5.00;2.00
65361;PMS5003;51961;54.960;73.462;2022-10-15T00:45:33;5.00;4.00;2.00
65361;PMS5003;51961;54.960;73.462;2022-10-15T00:48:35;5.00;5.00;1.00
65361;PMS5003;51961;54.960;73.462;2022-10-15T00:51:39;4.00;3.00;2.00
65361;PMS5003;51961;54.960;73.462;2022-10-15T00:54:45;4.67;4.00;1.00
65361;PMS5003;51961;54.960;73.462;2022-10-15T00:57:48;3.00;2.00;1.00
65361;PMS5003;51961;54.960;73.462;2022-10-15T01:00:51;5.00;4.00;2.00
65361;PMS5003;51961;54.960;73.462;2022-10-15T01:03:54;6.00;5.00;2.00
65361;PMS5003;51961;54.960;73.462;2022-10-15T01:06:56;8.00;6.00;2.00
65361;PMS5003;51961;54.960;73.462;2022-10-15T01:10:03;10.00;8.00;4.00
65361;PMS5003;51961;54.960;73.462;2022-10-15T01:13:18;11.00;7.00;2.75
65361;PMS5003;51961;54.960;73.462;2022-10-15T01:16:33;8.00;6.00;2.33
65361;PMS5003;51961;54.960;73.462;2022-10-15T01:23:02;10.00;8.00;4.00
65361;PMS5003;51961;54.960;73.462;2022-10-15T01:33:09;5.67;5.00;2.00
65361;PMS5003;51961;54.960;73.462;2022-10-15T01:36:15;5.00;4.33;2.00
65361;PMS5003;51961;54.960;73.462;2022-10-15T01:45:28;5.00;3.00;1.00
65361;PMS5003;51961;54.960;73.462;2022-10-15T01:48:56;4.00;3.00;2.00
65361;PMS5003;51961;54.960;73.462;2022-10-15T01:52:09;5.33;4.33;2.00
65361;PMS5003;51961;54.960;73.462;2022-10-15T01:55:14;7.67;6.00;3.00
65361;PMS5003;51961;54.960;73.462;2022-10-15T01:58:18;8.67;6.67;4.00
65361;PMS5003;51961;54.960;73.462;2022-10-15T02:01:20;9.00;6.00;4.00
65361;PMS5003;51961;54.960;73.462;2022-10-15T02:04:29;11.00;7.00;3.00
65361;PMS5003;51961;54.960;73.462;2022-10-15T02:07:35;12.00;9.00;3.00
65361;PMS5003;51961;54.960;73.462;2022-10-15T02:10:51;9.00;6.00;2.00
65361;PMS5003;51961;54.960;73.462;2022-10-15T02:17:08;5.33;5.00;3.00
65361;PMS5003;51961;54.960;73.462;2022-10-15T02:20:13;5.33;5.00;2.33
65361;PMS5003;51961;54.960;73.462;2022-10-15T02:23:19;6.00;5.00;2.33
65361;PMS5003;51961;54.960;73.462;2022-10-15T02:26:28;7.00;6.00;3.00
65361;PMS5003;51961;54.960;73.462;2022-10-15T02:29:32;6.00;5.67;3.00
65361;PMS5003;51961;54.960;73.462;2022-10-15T02:32:47;6.00;6.00;3.00
65361;PMS5003;51961;54.960;73.462;2022-10-15T02:35:50;6.00;5.00;3.00
65361;PMS5003;51961;54.960;73.462;2022-10-15T02:38:53;7.33;6.00;3.00
65361;PMS5003;51961;54.960;73.462;2022-10-15T02:41:57;8.67;6.00;2.67
65361;PMS5003;51961;54.960;73.462;2022-10-15T02:45:01;7.00;6.00;3.00
65361;PMS5003;51961;54.960;73.462;2022-10-15T02:48:14;8.67;7.00;3.00
65361;PMS5003;51961;54.960;73.462;2022-10-15T02:51:16;10.00;6.67;3.00
65361;PMS5003;51961;54.960;73.462;2022-10-15T02:54:21;6.00;4.00;3.00
65361;PMS5003;51961;54.960;73.462;2022-10-15T02:57:24;6.67;5.00;2.00
65361;PMS5003;51961;54.960;73.462;2022-10-15T03:00:36;9.67;6.33;3.67
65361;PMS5003;51961;54.960;73.462;2022-10-15T03:03:38;16.67;12.33;7.33
65361;PMS5003;51961;54.960;73.462;2022-10-15T03:06:40;19.75;17.00;9.00
65361;PMS5003;51961;54.960;73.462;2022-10-15T03:09:44;19.00;15.00;7.00
65361;PMS5003;51961;54.960;73.462;2022-10-15T03:12:47;21.00;16.00;9.00
65361;PMS5003;51961;54.960;73.462;2022-10-15T03:15:50;25.50;20.50;11.00
65361;PMS5003;51961;54.960;73.462;2022-10-15T03:18:54;34.75;27.00;17.50
65361;PMS5003;51961;54.960;73.462;2022-10-15T03:21:57;46.67;36.00;23.00
65361;PMS5003;51961;54.960;73.462;2022-10-15T03:25:01;41.00;32.00;20.00
65361;PMS5003;51961;54.960;73.462;2022-10-15T03:28:03;46.00;33.67;22.00
65361;PMS5003;51961;54.960;73.462;2022-10-15T03:31:21;41.00;31.50;20.00
65361;PMS5003;51961;54.960;73.462;2022-10-15T03:34:24;32.67;25.00;17.00
65361;PMS5003;51961;54.960;73.462;2022-10-15T03:37:26;31.75;24.00;16.00
65361;PMS5003;51961;54.960;73.462;2022-10-15T03:40:30;29.00;24.00;17.00
65361;PMS5003;51961;54.960;73.462;2022-10-15T03:43:44;26.00;24.00;16.00
65361;PMS5003;51961;54.960;73.462;2022-10-15T03:46:52;21.00;19.00;14.00
65361;PMS5003;51961;54.960;73.462;2022-10-15T03:49:59;21.25;19.75;13.00
65361;PMS5003;51961;54.960;73.462;2022-10-15T03:53:03;18.50;17.00;10.25
65361;PMS5003;51961;54.960;73.462;2022-10-15T03:56:15;17.00;15.25;7.00
65361;PMS5003;51961;54.960;73.462;2022-10-15T03:59:19;16.00;16.00;7.00
65361;PMS5003;51961;54.960;73.462;2022-10-15T04:02:30;16.00;15.00;6.75
65361;PMS5003;51961;54.960;73.462;2022-10-15T04:05:33;15.00;14.00;5.50
65361;PMS5003;51961;54.960;73.462;2022-10-15T04:08:49;18.00;14.00;6.00
65361;PMS5003;51961;54.960;73.462;2022-10-15T04:12:03;21.00;18.00;8.00
65361;PMS5003;51961;54.960;73.462;2022-10-15T04:15:06;23.50;20.00;8.75
65361;PMS5003;51961;54.960;73.462;2022-10-15T04:18:11;25.50;21.50;11.00
65361;PMS5003;51961;54.960;73.462;2022-10-15T04:21:26;46.33;35.67;23.00
65361;PMS5003;51961;54.960;73.462;2022-10-15T04:24:33;29.50;24.25;16.00
65361;PMS5003;51961;54.960;73.462;2022-10-15T04:27:35;22.00;17.00;13.00
65361;PMS5003;51961;54.960;73.462;2022-10-15T04:30:45;20.75;18.50;12.00
65361;PMS5003;51961;54.960;73.462;2022-10-15T04:33:54;20.00;18.00;10.00
65361;PMS5003;51961;54.960;73.462;2022-10-15T04:36:56;21.00;18.50;11.00
65361;PMS5003;51961;54.960;73.462;2022-10-15T04:39:59;37.00;29.67;20.33
65361;PMS5003;51961;54.960;73.462;2022-10-15T04:43:03;29.00;24.33;17.00
65361;PMS5003;51961;54.960;73.462;2022-10-15T04:46:07;21.00;17.00;9.00
65361;PMS5003;51961;54.960;73.462;2022-10-15T04:49:10;18.75;16.00;6.25
65361;PMS5003;51961;54.960;73.462;2022-10-15T04:52:15;18.00;14.00;7.50
65361;PMS5003;51961;54.960;73.462;2022-10-15T04:55:26;20.50;16.50;10.00
65361;PMS5003;51961;54.960;73.462;2022-10-15T04:58:34;19.75;17.00;8.00
65361;PMS5003;51961;54.960;73.462;2022-10-15T05:01:43;20.75;20.00;10.50
65361;PMS5003;51961;54.960;73.462;2022-10-15T05:04:53;30.00;26.67;16.33
65361;PMS5003;51961;54.960;73.462;2022-10-15T05:08:01;28.00;25.00;16.00
65361;PMS5003;51961;54.960;73.462;2022-10-15T05:11:12;25.25;23.00;16.00
65361;PMS5003;51961;54.960;73.462;2022-10-15T05:14:15;34.00;27.25;18.00
65361;PMS5003;51961;54.960;73.462;2022-10-15T05:17:24;38.50;31.75;20.50
65361;PMS5003;51961;54.960;73.462;2022-10-15T05:20:29;39.00;30.00;21.00
65361;PMS5003;51961;54.960;73.462;2022-10-15T05:23:33;34.00;27.00;19.00
65361;PMS5003;51961;54.960;73.462;2022-10-15T05:26:48;29.25;25.00;16.50
65361;PMS5003;51961;54.960;73.462;2022-10-15T05:29:51;24.50;23.00;15.00
65361;PMS5003;51961;54.960;73.462;2022-10-15T05:32:53;26.50;24.25;15.00
65361;PMS5003;51961;54.960;73.462;2022-10-15T05:36:06;24.33;21.00;13.00
65361;PMS5003;51961;54.960;73.462;2022-10-15T05:39:08;26.00;20.67;12.67
65361;PMS5003;51961;54.960;73.462;2022-10-15T05:42:17;45.00;35.00;23.33
65361;PMS5003;51961;54.960;73.462;2022-10-15T05:45:28;50.50;38.00;24.50
65361;PMS5003;51961;54.960;73.462;2022-10-15T05:48:34;45.33;35.00;23.00
65361;PMS5003;51961;54.960;73.462;2022-10-15T05:51:37;37.00;29.50;19.75
65361;PMS5003;51961;54.960;73.462;2022-10-15T05:54:50;34.00;27.00;19.00
65361;PMS5003;51961;54.960;73.462;2022-10-15T05:57:52;36.67;28.67;19.00
65361;PMS5003;51961;54.960;73.462;2022-10-15T06:00:56;46.00;35.00;23.00
65361;PMS5003;51961;54.960;73.462;2022-10-15T06:03:59;42.00;33.00;21.00
65361;PMS5003;51961;54.960;73.462;2022-10-15T06:07:05;37.25;30.00;20.00
65361;PMS5003;51961;54.960;73.462;2022-10-15T06:10:07;36.00;30.00;19.67
65361;PMS5003;51961;54.960;73.462;2022-10-15T06:13:10;49.67;38.67;24.67
65361;PMS5003;51961;54.960;73.462;2022-10-15T06:16:14;46.00;36.00;23.67
65361;PMS5003;51961;54.960;73.462;2022-10-15T06:19:16;41.25;32.25;20.50
65361;PMS5003;51961;54.960;73.462;2022-10-15T06:22:19;37.00;28.00;18.00
65361;PMS5003;51961;54.960;73.462;2022-10-15T06:25:31;33.50;27.00;18.50
65361;PMS5003;51961;54.960;73.462;2022-10-15T06:28:35;28.00;25.00;17.00
65361;PMS5003;51961;54.960;73.462;2022-10-15T06:31:37;31.00;26.00;17.00
65361;PMS5003;51961;54.960;73.462;2022-10-15T06:34:39;33.50;28.00;17.75
65361;PMS5003;51961;54.960;73.462;2022-10-15T06:37:42;30.67;26.00;17.00
65361;PMS5003;51961;54.960;73.462;2022-10-15T06:40:45;31.00;26.00;16.00
65361;PMS5003;51961;54.960;73.462;2022-10-15T06:43:48;25.50;23.00;14.75
65361;PMS5003;51961;54.960;73.462;2022-10-15T06:46:50;19.67;18.33;10.00
65361;PMS5003;51961;54.960;73.462;2022-10-15T06:49:53;21.50;18.00;10.00
65361;PMS5003;51961;54.960;73.462;2022-10-15T06:52:55;26.50;19.00;10.00
65361;PMS5003;51961;54.960;73.462;2022-10-15T06:56:02;22.00;20.00;11.33
65361;PMS5003;51961;54.960;73.462;2022-10-15T06:59:09;22.33;22.00;12.00
65361;PMS5003;51961;54.960;73.462;2022-10-15T07:02:12;26.75;24.25;13.00
65361;PMS5003;51961;54.960;73.462;2022-10-15T07:05:18;35.50;29.25;17.75
65361;PMS5003;51961;54.960;73.462;2022-10-15T07:08:21;39.00;30.33;19.00
65361;PMS5003;51961;54.960;73.462;2022-10-15T07:11:26;38.00;30.00;19.00
65361;PMS5003;51961;54.960;73.462;2022-10-15T07:14:29;34.67;27.00;18.00
65361;PMS5003;51961;54.960;73.462;2022-10-15T07:17:32;27.00;24.00;17.00
65361;PMS5003;51961;54.960;73.462;2022-10-15T07:20:45;24.25;21.50;14.00
65361;PMS5003;51961;54.960;73.462;2022-10-15T07:23:47;25.00;23.00;14.00
65361;PMS5003;51961;54.960;73.462;2022-10-15T07:26:50;26.00;22.00;14.00
65361;PMS5003;51961;54.960;73.462;2022-10-15T07:29:52;29.67;26.00;16.00
65361;PMS5003;51961;54.960;73.462;2022-10-15T07:32:55;34.00;27.00;17.00
65361;PMS5003;51961;54.960;73.462;2022-10-15T07:36:05;27.00;22.33;15.00
65361;PMS5003;51961;54.960;73.462;2022-10-15T07:39:08;22.75;20.50;15.00
65361;PMS5003;51961;54.960;73.462;2022-10-15T07:42:11;20.00;17.25;10.00
65361;PMS5003;51961;54.960;73.462;2022-10-15T07:45:25;15.00;12.25;4.00
65361;PMS5003;51961;54.960;73.462;2022-10-15T07:48:27;15.75;14.25;6.75
65361;PMS5003;51961;54.960;73.462;2022-10-15T07:51:31;19.75;16.50;8.00
65361;PMS5003;51961;54.960;73.462;2022-10-15T07:54:34;21.00;20.00;10.00
65361;PMS5003;51961;54.960;73.462;2022-10-15T07:57:43;32.75;24.50;13.25
65361;PMS5003;51961;54.960;73.462;2022-10-15T08:00:45;33.75;26.75;15.00
65361;PMS5003;51961;54.960;73.462;2022-10-15T08:03:46;24.50;21.00;14.00
65361;PMS5003;51961;54.960;73.462;2022-10-15T08:06:49;20.67;18.00;10.00
65361;PMS5003;51961;54.960;73.462;2022-10-15T08:09:52;17.00;15.00;5.50
65361;PMS5003;51961;54.960;73.462;2022-10-15T08:12:55;19.50;15.50;7.75
65361;PMS5003;51961;54.960;73.462;2022-10-15T08:15:58;21.75;18.00;9.25
65361;PMS5003;51961;54.960;73.462;2022-10-15T08:19:01;20.00;16.00;8.00
65361;PMS5003;51961;54.960;73.462;2022-10-15T08:22:04;20.25;15.00;7.00
65361;PMS5003;51961;54.960;73.462;2022-10-15T08:25:07;13.50;9.00;3.25
65361;PMS5003;51961;54.960;73.462;2022-10-15T08:28:09;7.00;6.25;2.00
65361;PMS5003;51961;54.960;73.462;2022-10-15T08:31:11;18.50;13.25;8.50
65361;PMS5003;51961;54.960;73.462;2022-10-15T08:34:15;19.50;14.25;6.00
65361;PMS5003;51961;54.960;73.462;2022-10-15T08:37:19;20.00;16.50;6.75
65361;PMS5003;51961;54.960;73.462;2022-10-15T08:40:22;16.75;14.00;5.50
65361;PMS5003;51961;54.960;73.462;2022-10-15T08:52:49;20.50;16.50;10.50
65361;PMS5003;51961;54.960;73.462;2022-10-15T08:55:54;15.25;12.25;3.50
65361;PMS5003;51961;54.960;73.462;2022-10-15T08:59:04;11.00;6.50;1.00
65361;PMS5003;51961;54.960;73.462;2022-10-15T09:15:16;15.00;12.00;5.50
65361;PMS5003;51961;54.960;73.462;2022-10-15T09:18:21;15.50;11.00;5.00
65361;PMS5003;51961;54.960;73.462;2022-10-15T09:21:24;16.50;13.00;6.00
65361;PMS5003;51961;54.960;73.462;2022-10-15T09:24:30;21.75;16.75;8.00
65361;PMS5003;51961;54.960;73.462;2022-10-15T09:27:33;12.75;9.25;3.00
65361;PMS5003;51961;54.960;73.462;2022-10-15T09:30:47;28.75;21.50;11.00
65361;PMS5003;51961;54.960;73.462;2022-10-15T09:33:53;19.00;13.75;6.75
65361;PMS5003;51961;54.960;73.462;2022-10-15T09:37:04;7.00;4.25;2.00
65361;PMS5003;51961;54.960;73.462;2022-10-15T09:43:24;11.00;10.67;4.67
65361;PMS5003;51961;54.960;73.462;2022-10-15T09:46:32;14.75;12.00;7.00
65361;PMS5003;51961;54.960;73.462;2022-10-15T09:49:34;17.50;14.00;7.00
65361;PMS5003;51961;54.960;73.462;2022-10-15T09:55:53;25.33;20.67;11.33
65361;PMS5003;51961;54.960;73.462;2022-10-15T09:58:59;29.67;22.67;14.33
65361;PMS5003;51961;54.960;73.462;2022-10-15T10:02:03;21.00;17.00;9.33
65361;PMS5003;51961;54.960;73.462;2022-10-15T10:05:26;17.50;15.50;5.50
65361;PMS5003;51961;54.960;73.462;2022-10-15T10:08:48;10.00;8.00;4.00
65361;PMS5003;51961;54.960;73.462;2022-10-15T10:11:55;12.00;10.25;6.00
65361;PMS5003;51961;54.960;73.462;2022-10-15T10:15:00;15.75;14.00;7.50
65361;PMS5003;51961;54.960;73.462;2022-10-15T10:18:19;20.50;17.00;7.75
65361;PMS5003;51961;54.960;73.462;2022-10-15T10:21:23;17.00;14.75;6.00
65361;PMS5003;51961;54.960;73.462;2022-10-15T10:24:38;14.50;11.00;5.00
65361;PMS5003;51961;54.960;73.462;2022-10-15T10:28:02;16.00;12.25;6.00
65361;PMS5003;51961;54.960;73.462;2022-10-15T10:31:06;23.50;18.25;11.00
65361;PMS5003;51961;54.960;73.462;2022-10-15T10:34:13;22.00;18.33;11.00
65361;PMS5003;51961;54.960;73.462;2022-10-15T10:37:19;18.00;13.75;6.00
65361;PMS5003;51961;54.960;73.462;2022-10-15T10:40:31;23.00;17.00;7.00
65361;PMS5003;51961;54.960;73.462;2022-10-15T10:43:52;19.00;17.00;8.00
65361;PMS5003;51961;54.960;73.462;2022-10-15T10:47:03;19.00;16.00;6.00
65361;PMS5003;51961;54.960;73.462;2022-10-15T10:50:30;20.25;16.75;6.75
65361;PMS5003;51961;54.960;73.462;2022-10-15T10:53:39;20.00;16.00;6.67
65361;PMS5003;51961;54.960;73.462;2022-10-15T10:56:46;20.75;15.25;7.25
65361;PMS5003;51961;54.960;73.462;2022-10-15T10:59:50;27.33;22.33;13.33
65361;PMS5003;51961;54.960;73.462;2022-10-15T11:02:54;36.00;27.00;17.00
65361;PMS5003;51961;54.960;73.462;2022-10-15T11:06:05;34.67;27.00;17.00
65361;PMS5003;51961;54.960;73.462;2022-10-15T11:22:13;18.75;14.75;6.00
65361;PMS5003;51961;54.960;73.462;2022-10-15T11:38:49;17.00;15.00;5.00
65361;PMS5003;51961;54.960;73.462;2022-10-15T11:45:15;17.00;12.75;6.00
65361;PMS5003;51961;54.960;73.462;2022-10-15T11:48:28;20.00;17.50;7.75
65361;PMS5003;51961;54.960;73.462;2022-10-15T11:52:01;22.00;19.00;10.00
65361;PMS5003;51961;54.960;73.462;2022-10-15T11:58:35;17.75;17.75;6.50
65361;PMS5003;51961;54.960;73.462;2022-10-15T12:01:37;19.25;17.00;8.00
65361;PMS5003;51961;54.960;73.462;2022-10-15T12:07:53;16.00;12.00;4.50
65361;PMS5003;51961;54.960;73.462;2022-10-15T12:17:35;26.50;22.25;12.50
65361;PMS5003;51961;54.960;73.462;2022-10-15T12:20:41;23.33;21.00;11.00
65361;PMS5003;51961;54.960;73.462;2022-10-15T12:23:44;18.50;17.00;8.00
65361;PMS5003;51961;54.960;73.462;2022-10-15T12:26:48;18.00;16.00;6.00
65361;PMS5003;51961;54.960;73.462;2022-10-15T12:33:01;20.50;16.75;9.50
65361;PMS5003;51961;54.960;73.462;2022-10-15T12:36:05;24.00;20.00;12.67
65361;PMS5003;51961;54.960;73.462;2022-10-15T12:39:43;23.33;21.67;15.00
65361;PMS5003;51961;54.960;73.462;2022-10-15T12:42:38;22.67;20.00;13.00
65361;PMS5003;51961;54.960;73.462;2022-10-15T12:45:49;20.00;17.00;10.00
65361;PMS5003;51961;54.960;73.462;2022-10-15T12:48:51;20.00;17.00;9.00
65361;PMS5003;51961;54.960;73.462;2022-10-15T12:51:59;19.25;16.00;7.00
65361;PMS5003;51961;54.960;73.462;2022-10-15T12:58:31;22.00;19.00;12.33
65361;PMS5003;51961;54.960;73.462;2022-10-15T13:04:42;23.67;20.00;15.00
65361;PMS5003;51961;54.960;73.462;2022-10-15T13:07:45;23.67;22.00;16.00
65361;PMS5003;51961;54.960;73.462;2022-10-15T13:10:54;30.75;26.75;18.75
65361;PMS5003;51961;54.960;73.462;2022-10-15T13:14:00;44.00;35.00;24.00
65361;PMS5003;51961;54.960;73.462;2022-10-15T13:17:24;45.50;35.00;24.00
65361;PMS5003;51961;54.960;73.462;2022-10-15T13:20:28;42.00;31.00;20.25
65361;PMS5003;51961;54.960;73.462;2022-10-15T13:23:46;35.67;27.00;18.00
65361;PMS5003;51961;54.960;73.462;2022-10-15T13:26:48;33.75;28.00;18.00
65361;PMS5003;51961;54.960;73.462;2022-10-15T13:29:56;30.25;27.00;18.00
65361;PMS5003;51961;54.960;73.462;2022-10-15T13:32:59;29.00;25.00;18.00
65361;PMS5003;51961;54.960;73.462;2022-10-15T13:36:05;31.25;26.00;17.75
65361;PMS5003;51961;54.960;73.462;2022-10-15T13:39:19;31.00;26.00;17.00
65361;PMS5003;51961;54.960;73.462;2022-10-15T13:42:25;36.33;27.00;18.00
65361;PMS5003;51961;54.960;73.462;2022-10-15T13:45:28;36.00;27.00;18.00
65361;PMS5003;51961;54.960;73.462;2022-10-15T13:48:31;35.50;27.00;17.00
65361;PMS5003;51961;54.960;73.462;2022-10-15T13:51:41;34.00;28.00;18.00
65361;PMS5003;51961;54.960;73.462;2022-10-15T13:54:44;33.67;28.67;18.00
65361;PMS5003;51961;54.960;73.462;2022-10-15T13:57:47;34.75;28.00;19.00
65361;PMS5003;51961;54.960;73.462;2022-10-15T14:00:54;34.00;27.00;18.67
65361;PMS5003;51961;54.960;73.462;2022-10-15T14:03:59;37.00;29.67;19.00
65361;PMS5003;51961;54.960;73.462;2022-10-15T14:07:15;37.50;30.50;18.25
65361;PMS5003;51961;54.960;73.462;2022-10-15T14:10:19;38.00;31.00;19.00
65361;PMS5003;51961;54.960;73.462;2022-10-15T14:13:31;40.00;31.00;19.00
65361;PMS5003;51961;54.960;73.462;2022-10-15T14:16:45;40.25;30.25;20.00
65361;PMS5003;51961;54.960;73.462;2022-10-15T14:19:59;39.00;31.00;20.00
65361;PMS5003;51961;54.960;73.462;2022-10-15T14:23:02;40.00;31.00;19.00
65361;PMS5003;51961;54.960;73.462;2022-10-15T14:26:05;39.00;30.00;19.00
65361;PMS5003;51961;54.960;73.462;2022-10-15T14:29:27;40.50;31.75;20.75
65361;PMS5003;51961;54.960;73.462;2022-10-15T14:32:41;42.00;32.67;21.00
65361;PMS5003;51961;54.960;73.462;2022-10-15T14:35:45;42.75;32.00;19.00
65361;PMS5003;51961;54.960;73.462;2022-10-15T14:39:20;42.75;31.00;20.00
65361;PMS5003;51961;54.960;73.462;2022-10-15T14:42:30;40.00;30.50;20.00
65361;PMS5003;51961;54.960;73.462;2022-10-15T14:45:40;39.00;32.00;21.00
65361;PMS5003;51961;54.960;73.462;2022-10-15T14:48:44;40.33;33.00;19.67
65361;PMS5003;51961;54.960;73.462;2022-10-15T14:58:16;44.50;34.00;22.00
65361;PMS5003;51961;54.960;73.462;2022-10-15T15:01:19;44.50;35.00;22.00
65361;PMS5003;51961;54.960;73.462;2022-10-15T15:04:35;45.00;34.00;21.50
65361;PMS5003;51961;54.960;73.462;2022-10-15T15:07:39;44.50;34.00;22.00
65361;PMS5003;51961;54.960;73.462;2022-10-15T15:10:42;48.33;36.33;23.00
65361;PMS5003;51961;54.960;73.462;2022-10-15T15:13:45;50.75;38.75;24.25
65361;PMS5003;51961;54.960;73.462;2022-10-15T15:16:47;52.00;40.00;26.00
65361;PMS5003;51961;54.960;73.462;2022-10-15T15:19:50;52.00;40.50;26.00
65361;PMS5003;51961;54.960;73.462;2022-10-15T15:22:58;53.50;40.00;25.00
65361;PMS5003;51961;54.960;73.462;2022-10-15T15:26:01;54.75;40.75;25.00
65361;PMS5003;51961;54.960;73.462;2022-10-15T15:29:13;54.00;40.75;26.50
65361;PMS5003;51961;54.960;73.462;2022-10-15T15:32:16;58.67;45.67;27.00
65361;PMS5003;51961;54.960;73.462;2022-10-15T15:35:23;60.25;45.75;28.50
65361;PMS5003;51961;54.960;73.462;2022-10-15T15:38:28;59.25;45.00;29.00
65361;PMS5003;51961;54.960;73.462;2022-10-15T15:41:33;60.75;47.00;31.00
65361;PMS5003;51961;54.960;73.462;2022-10-15T15:44:36;58.25;47.00;30.25
65361;PMS5003;51961;54.960;73.462;2022-10-15T15:47:42;59.00;45.00;29.00
65361;PMS5003;51961;54.960;73.462;2022-10-15T15:50:45;59.50;46.25;29.00
65361;PMS5003;51961;54.960;73.462;2022-10-15T15:53:47;61.00;45.00;28.00
65361;PMS5003;51961;54.960;73.462;2022-10-15T15:56:49;58.50;44.00;27.25
65361;PMS5003;51961;54.960;73.462;2022-10-15T15:59:53;61.00;45.40;29.00
65361;PMS5003;51961;54.960;73.462;2022-10-15T16:02:55;61.00;46.00;29.00
65361;PMS5003;51961;54.960;73.462;2022-10-15T16:05:58;59.67;45.67;28.00
65361;PMS5003;51961;54.960;73.462;2022-10-15T16:09:01;60.25;45.75;28.75
65361;PMS5003;51961;54.960;73.462;2022-10-15T16:12:04;59.67;46.00;29.00
65361;PMS5003;51961;54.960;73.462;2022-10-15T16:15:12;58.00;45.00;28.00
65361;PMS5003;51961;54.960;73.462;2022-10-15T16:18:19;57.50;44.00;27.00
65361;PMS5003;51961;54.960;73.462;2022-10-15T16:21:21;54.00;42.00;26.00
65361;PMS5003;51961;54.960;73.462;2022-10-15T16:24:24;55.00;42.00;27.00
65361;PMS5003;51961;54.960;73.462;2022-10-15T16:27:28;54.50;40.75;26.75
65361;PMS5003;51961;54.960;73.462;2022-10-15T16:30:30;52.50;39.00;25.00
65361;PMS5003;51961;54.960;73.462;2022-10-15T16:33:32;53.50;39.50;25.00
65361;PMS5003;51961;54.960;73.462;2022-10-15T16:36:39;53.00;41.00;25.00
65361;PMS5003;51961;54.960;73.462;2022-10-15T16:39:42;55.50;41.00;25.25
65361;PMS5003;51961;54.960;73.462;2022-10-15T16:42:49;54.50;40.50;26.50
65361;PMS5003;51961;54.960;73.462;2022-10-15T16:45:57;54.50;40.50;26.00
65361;PMS5003;51961;54.960;73.462;2022-10-15T16:48:59;52.00;38.00;25.00
65361;PMS5003;51961;54.960;73.462;2022-10-15T16:52:02;50.00;37.00;24.00
65361;PMS5003;51961;54.960;73.462;2022-10-15T16:55:05;49.00;37.00;23.00
65361;PMS5003;51961;54.960;73.462;2022-10-15T16:58:12;46.00;37.00;23.00
65361;PMS5003;51961;54.960;73.462;2022-10-15T17:01:22;48.75;38.75;24.25
65361;PMS5003;51961;54.960;73.462;2022-10-15T17:04:33;51.50;40.00;25.50
65361;PMS5003;51961;54.960;73.462;2022-10-15T17:07:36;50.00;39.00;26.00
65361;PMS5003;51961;54.960;73.462;2022-10-15T17:10:50;49.00;38.00;24.00
65361;PMS5003;51961;54.960;73.462;2022-10-15T17:13:58;48.75;37.00;23.00
65361;PMS5003;51961;54.960;73.462;2022-10-15T17:17:10;47.00;35.50;22.50
65361;PMS5003;51961;54.960;73.462;2022-10-15T17:20:14;47.00;37.00;23.00
65361;PMS5003;51961;54.960;73.462;2022-10-15T17:23:16;49.25;37.50;23.00
65361;PMS5003;51961;54.960;73.462;2022-10-15T17:26:19;49.00;36.50;23.50
65361;PMS5003;51961;54.960;73.462;2022-10-15T17:29:23;45.00;35.00;22.00
65361;PMS5003;51961;54.960;73.462;2022-10-15T17:32:25;38.33;30.33;19.33
65361;PMS5003;51961;54.960;73.462;2022-10-15T17:35:38;37.00;28.75;18.00
65361;PMS5003;51961;54.960;73.462;2022-10-15T17:38:40;37.75;29.00;18.50
65361;PMS5003;51961;54.960;73.462;2022-10-15T17:41:42;37.25;29.00;18.25
65361;PMS5003;51961;54.960;73.462;2022-10-15T17:44:44;38.33;28.67;18.67
65361;PMS5003;51961;54.960;73.462;2022-10-15T17:47:52;35.25;27.00;18.00
65361;PMS5003;51961;54.960;73.462;2022-10-15T17:50:54;33.00;26.00;18.00
65361;PMS5003;51961;54.960;73.462;2022-10-15T17:54:01;31.67;26.00;18.00
65361;PMS5003;51961;54.960;73.462;2022-10-15T17:57:03;41.00;32.00;20.67
65361;PMS5003;51961;54.960;73.462;2022-10-15T18:00:06;47.50;38.00;25.00
65361;PMS5003;51961;54.960;73.462;2022-10-15T18:03:24;39.50;31.25;20.00
65361;PMS5003;51961;54.960;73.462;2022-10-15T18:06:36;32.67;26.00;18.00
65361;PMS5003;51961;54.960;73.462;2022-10-15T18:09:39;28.00;24.00;16.00
65361;PMS5003;51961;54.960;73.462;2022-10-15T18:12:43;28.50;23.75;14.00
65361;PMS5003;51961;54.960;73.462;2022-10-15T18:15:46;28.67;25.00;14.67
65361;PMS5003;51961;54.960;73.462;2022-10-15T18:18:53;29.00;24.00;14.00
65361;PMS5003;51961;54.960;73.462;2022-10-15T18:21:55;24.75;21.00;14.00
65361;PMS5003;51961;54.960;73.462;2022-10-15T18:24:58;24.50;20.00;13.00
65361;PMS5003;51961;54.960;73.462;2022-10-15T18:28:02;26.00;22.75;13.25
65361;PMS5003;51961;54.960;73.462;2022-10-15T18:31:05;27.25;25.00;13.00
65361;PMS5003;51961;54.960;73.462;2022-10-15T18:34:13;26.50;24.00;13.75
65361;PMS5003;51961;54.960;73.462;2022-10-15T18:37:15;26.50;22.00;14.50
65361;PMS5003;51961;54.960;73.462;2022-10-15T18:40:17;25.00;22.67;14.00
65361;PMS5003;51961;54.960;73.462;2022-10-15T18:43:19;29.00;22.67;14.00
65361;PMS5003;51961;54.960;73.462;2022-10-15T18:46:33;30.67;25.00;16.00
65361;PMS5003;51961;54.960;73.462;2022-10-15T18:49:35;30.00;26.00;16.00
65361;PMS5003;51961;54.960;73.462;2022-10-15T18:52:37;30.67;27.00;17.00
65361;PMS5003;51961;54.960;73.462;2022-10-15T18:55:41;35.00;26.00;17.00
65361;PMS5003;51961;54.960;73.462;2022-10-15T18:58:55;30.00;26.00;17.00
65361;PMS5003;51961;54.960;73.462;2022-10-15T19:01:58;31.00;27.00;16.33
65361;PMS5003;51961;54.960;73.462;2022-10-15T19:05:01;30.00;26.00;16.67
65361;PMS5003;51961;54.960;73.462;2022-10-15T19:08:07;31.00;25.00;16.50